sensor_id;sensor_type;location;lat;lon;timestamp;temperature;humidity
12477;DHT22;6303;51.504;6.300;2023-09-07T00:01:19;29.40;68.00
12477;DHT22;6303;51.504;6.300;2023-09-07T00:03:48;29.40;68.10
12477;DHT22;6303;51.504;6.300;2023-09-07T00:06:15;29.40;68.10
12477;DHT22;6303;51.504;6.300;2023-09-07T00:08:43;29.40;68.30
12477;DHT22;6303;51.504;6.300;2023-09-07T00:11:10;29.30;68.20
12477;DHT22;6303;51.504;6.300;2023-09-07T00:13:37;29.30;68.40
12477;DHT22;6303;51.504;6.300;2023-09-07T00:16:05;29.30;68.50
12477;DHT22;6303;51.504;6.300;2023-09-07T00:18:33;29.30;68.60
12477;DHT22;6303;51.504;6.300;2023-09-07T00:21:02;29.30;68.60
12477;DHT22;6303;51.504;6.300;2023-09-07T00:23:29;29.30;68.70
12477;DHT22;6303;51.504;6.300;2023-09-07T00:25:56;29.30;68.70
12477;DHT22;6303;51.504;6.300;2023-09-07T00:28:23;29.30;68.80
12477;DHT22;6303;51.504;6.300;2023-09-07T00:30:51;29.30;68.80
12477;DHT22;6303;51.504;6.300;2023-09-07T00:33:18;29.30;68.90
12477;DHT22;6303;51.504;6.300;2023-09-07T00:35:45;29.30;69.30
12477;DHT22;6303;51.504;6.300;2023-09-07T00:38:14;29.30;69.40
12477;DHT22;6303;51.504;6.300;2023-09-07T00:40:42;29.30;69.50
12477;DHT22;6303;51.504;6.300;2023-09-07T00:43:10;29.30;69.40
12477;DHT22;6303;51.504;6.300;2023-09-07T00:45:38;29.30;69.30
12477;DHT22;6303;51.504;6.300;2023-09-07T00:48:06;29.30;69.20
12477;DHT22;6303;51.504;6.300;2023-09-07T00:50:33;29.30;69.40
12477;DHT22;6303;51.504;6.300;2023-09-07T00:53:00;29.30;69.40
12477;DHT22;6303;51.504;6.300;2023-09-07T00:55:30;29.20;69.20
12477;DHT22;6303;51.504;6.300;2023-09-07T00:58:00;29.20;69.20
12477;DHT22;6303;51.504;6.300;2023-09-07T01:03:05;29.20;69.50
12477;DHT22;6303;51.504;6.300;2023-09-07T01:05:37;29.20;69.40
12477;DHT22;6303;51.504;6.300;2023-09-07T01:08:12;29.00;69.40
12477;DHT22;6303;51.504;6.300;2023-09-07T01:10:42;29.20;69.70
12477;DHT22;6303;51.504;6.300;2023-09-07T01:13:09;29.20;69.70
12477;DHT22;6303;51.504;6.300;2023-09-07T01:15:37;29.20;69.70
12477;DHT22;6303;51.504;6.300;2023-09-07T01:18:05;29.20;69.60
12477;DHT22;6303;51.504;6.300;2023-09-07T01:20:35;29.20;70.00
12477;DHT22;6303;51.504;6.300;2023-09-07T01:23:04;29.20;70.00
12477;DHT22;6303;51.504;6.300;2023-09-07T01:25:32;29.20;69.90
12477;DHT22;6303;51.504;6.300;2023-09-07T01:27:59;29.20;69.90
12477;DHT22;6303;51.504;6.300;2023-09-07T01:30:27;29.20;70.10
12477;DHT22;6303;51.504;6.300;2023-09-07T01:32:54;29.20;70.10
12477;DHT22;6303;51.504;6.300;2023-09-07T01:35:22;29.20;70.20
12477;DHT22;6303;51.504;6.300;2023-09-07T01:37:50;29.20;70.30
12477;DHT22;6303;51.504;6.300;2023-09-07T01:40:19;29.10;70.20
12477;DHT22;6303;51.504;6.300;2023-09-07T01:42:46;29.70;70.70
12477;DHT22;6303;51.504;6.300;2023-09-07T01:45:13;29.10;70.30
12477;DHT22;6303;51.504;6.300;2023-09-07T01:47:40;29.10;70.60
12477;DHT22;6303;51.504;6.300;2023-09-07T01:50:08;29.10;70.70
12477;DHT22;6303;51.504;6.300;2023-09-07T01:52:35;29.10;70.50
12477;DHT22;6303;51.504;6.300;2023-09-07T01:55:03;29.10;70.50
12477;DHT22;6303;51.504;6.300;2023-09-07T01:57:32;29.10;70.50
12477;DHT22;6303;51.504;6.300;2023-09-07T01:59:59;29.10;70.80
12477;DHT22;6303;51.504;6.300;2023-09-07T02:02:27;29.10;70.60
12477;DHT22;6303;51.504;6.300;2023-09-07T02:04:54;29.10;70.70
12477;DHT22;6303;51.504;6.300;2023-09-07T02:07:21;29.10;71.00
12477;DHT22;6303;51.504;6.300;2023-09-07T02:09:48;29.40;71.00
12477;DHT22;6303;51.504;6.300;2023-09-07T02:12:15;29.10;70.80
12477;DHT22;6303;51.504;6.300;2023-09-07T02:14:44;29.10;70.80
12477;DHT22;6303;51.504;6.300;2023-09-07T02:17:11;29.10;70.70
12477;DHT22;6303;51.504;6.300;2023-09-07T02:19:43;29.00;70.90
12477;DHT22;6303;51.504;6.300;2023-09-07T02:22:10;29.00;70.90
12477;DHT22;6303;51.504;6.300;2023-09-07T02:24:38;29.00;70.90
12477;DHT22;6303;51.504;6.300;2023-09-07T02:27:05;29.00;71.00
12477;DHT22;6303;51.504;6.300;2023-09-07T02:29:32;29.50;71.40
12477;DHT22;6303;51.504;6.300;2023-09-07T02:32:01;29.00;71.00
12477;DHT22;6303;51.504;6.300;2023-09-07T02:34:28;29.00;70.90
12477;DHT22;6303;51.504;6.300;2023-09-07T02:36:55;29.00;70.90
12477;DHT22;6303;51.504;6.300;2023-09-07T02:39:23;29.00;71.00
12477;DHT22;6303;51.504;6.300;2023-09-07T02:41:51;29.00;71.20
12477;DHT22;6303;51.504;6.300;2023-09-07T02:44:19;29.00;71.20
12477;DHT22;6303;51.504;6.300;2023-09-07T02:46:46;28.90;71.20
12477;DHT22;6303;51.504;6.300;2023-09-07T02:49:15;29.00;71.40
12477;DHT22;6303;51.504;6.300;2023-09-07T02:51:42;28.90;71.20
12477;DHT22;6303;51.504;6.300;2023-09-07T02:54:09;28.90;71.30
12477;DHT22;6303;51.504;6.300;2023-09-07T02:56:36;28.90;71.20
12477;DHT22;6303;51.504;6.300;2023-09-07T02:59:04;28.90;71.00
12477;DHT22;6303;51.504;6.300;2023-09-07T03:01:31;28.90;71.00
12477;DHT22;6303;51.504;6.300;2023-09-07T03:03:59;28.90;70.90
12477;DHT22;6303;51.504;6.300;2023-09-07T03:06:27;28.90;70.80
12477;DHT22;6303;51.504;6.300;2023-09-07T03:08:54;28.90;70.80
12477;DHT22;6303;51.504;6.300;2023-09-07T03:11:22;28.90;70.90
12477;DHT22;6303;51.504;6.300;2023-09-07T03:13:50;28.90;71.10
12477;DHT22;6303;51.504;6.300;2023-09-07T03:16:18;28.90;71.40
12477;DHT22;6303;51.504;6.300;2023-09-07T03:18:45;28.80;70.90
12477;DHT22;6303;51.504;6.300;2023-09-07T03:21:12;28.90;71.00
12477;DHT22;6303;51.504;6.300;2023-09-07T03:23:41;28.80;70.90
12477;DHT22;6303;51.504;6.300;2023-09-07T03:26:11;28.80;70.70
12477;DHT22;6303;51.504;6.300;2023-09-07T03:28:38;28.80;70.70
12477;DHT22;6303;51.504;6.300;2023-09-07T03:31:06;28.80;70.70
12477;DHT22;6303;51.504;6.300;2023-09-07T03:33:33;28.80;70.70
12477;DHT22;6303;51.504;6.300;2023-09-07T03:36:00;28.80;70.70
12477;DHT22;6303;51.504;6.300;2023-09-07T03:38:28;28.70;70.70
12477;DHT22;6303;51.504;6.300;2023-09-07T03:40:57;28.80;70.80
12477;DHT22;6303;51.504;6.300;2023-09-07T03:43:24;29.40;71.30
12477;DHT22;6303;51.504;6.300;2023-09-07T03:45:51;28.80;70.90
12477;DHT22;6303;51.504;6.300;2023-09-07T03:48:18;28.80;70.90
12477;DHT22;6303;51.504;6.300;2023-09-07T03:50:47;28.80;70.90
12477;DHT22;6303;51.504;6.300;2023-09-07T03:53:14;28.80;70.80
12477;DHT22;6303;51.504;6.300;2023-09-07T03:55:41;28.80;70.70
12477;DHT22;6303;51.504;6.300;2023-09-07T03:58:11;28.80;70.60
12477;DHT22;6303;51.504;6.300;2023-09-07T04:00:40;28.80;70.50
12477;DHT22;6303;51.504;6.300;2023-09-07T04:03:07;28.80;70.40
12477;DHT22;6303;51.504;6.300;2023-09-07T04:05:37;28.70;69.90
12477;DHT22;6303;51.504;6.300;2023-09-07T04:08:05;28.70;70.10
12477;DHT22;6303;51.504;6.300;2023-09-07T04:10:32;28.70;70.10
12477;DHT22;6303;51.504;6.300;2023-09-07T04:12:59;28.80;70.10
12477;DHT22;6303;51.504;6.300;2023-09-07T04:15:27;28.70;70.10
12477;DHT22;6303;51.504;6.300;2023-09-07T04:17:57;28.70;70.20
12477;DHT22;6303;51.504;6.300;2023-09-07T04:20:24;28.70;70.20
12477;DHT22;6303;51.504;6.300;2023-09-07T04:22:52;28.70;70.20
12477;DHT22;6303;51.504;6.300;2023-09-07T04:25:20;28.70;70.10
12477;DHT22;6303;51.504;6.300;2023-09-07T04:27:47;28.70;70.20
12477;DHT22;6303;51.504;6.300;2023-09-07T04:30:14;28.70;70.10
12477;DHT22;6303;51.504;6.300;2023-09-07T04:32:41;28.70;69.90
12477;DHT22;6303;51.504;6.300;2023-09-07T04:35:09;28.70;69.10
12477;DHT22;6303;51.504;6.300;2023-09-07T04:37:36;28.70;68.70
12477;DHT22;6303;51.504;6.300;2023-09-07T04:40:06;28.70;68.40
12477;DHT22;6303;51.504;6.300;2023-09-07T04:42:33;28.70;68.50
12477;DHT22;6303;51.504;6.300;2023-09-07T04:45:00;28.70;68.40
12477;DHT22;6303;51.504;6.300;2023-09-07T04:47:29;28.70;68.60
12477;DHT22;6303;51.504;6.300;2023-09-07T04:49:57;28.70;68.60
12477;DHT22;6303;51.504;6.300;2023-09-07T04:52:25;28.70;68.50
12477;DHT22;6303;51.504;6.300;2023-09-07T04:54:52;28.70;68.40
12477;DHT22;6303;51.504;6.300;2023-09-07T04:57:20;28.60;68.40
12477;DHT22;6303;51.504;6.300;2023-09-07T04:59:47;27.80;67.90
12477;DHT22;6303;51.504;6.300;2023-09-07T05:02:14;28.60;68.50
12477;DHT22;6303;51.504;6.300;2023-09-07T05:04:43;28.60;68.40
12477;DHT22;6303;51.504;6.300;2023-09-07T05:07:12;28.60;68.50
12477;DHT22;6303;51.504;6.300;2023-09-07T05:09:39;28.60;68.50
12477;DHT22;6303;51.504;6.300;2023-09-07T05:12:07;28.60;68.60
12477;DHT22;6303;51.504;6.300;2023-09-07T05:14:34;28.60;68.60
12477;DHT22;6303;51.504;6.300;2023-09-07T05:17:01;28.60;68.70
12477;DHT22;6303;51.504;6.300;2023-09-07T05:19:28;28.60;68.70
12477;DHT22;6303;51.504;6.300;2023-09-07T05:21:56;28.60;68.60
12477;DHT22;6303;51.504;6.300;2023-09-07T05:24:24;28.60;68.60
12477;DHT22;6303;51.504;6.300;2023-09-07T05:26:52;28.70;68.70
12477;DHT22;6303;51.504;6.300;2023-09-07T05:29:19;28.60;68.80
12477;DHT22;6303;51.504;6.300;2023-09-07T05:31:46;28.70;69.10
12477;DHT22;6303;51.504;6.300;2023-09-07T05:34:17;28.70;69.70
12477;DHT22;6303;51.504;6.300;2023-09-07T05:36:45;28.70;70.40
12477;DHT22;6303;51.504;6.300;2023-09-07T05:39:12;28.80;71.10
12477;DHT22;6303;51.504;6.300;2023-09-07T05:41:41;28.80;71.00
12477;DHT22;6303;51.504;6.300;2023-09-07T05:44:09;28.80;71.30
12477;DHT22;6303;51.504;6.300;2023-09-07T05:46:36;28.80;71.20
12477;DHT22;6303;51.504;6.300;2023-09-07T05:49:03;28.90;71.40
12477;DHT22;6303;51.504;6.300;2023-09-07T05:51:30;28.90;71.50
12477;DHT22;6303;51.504;6.300;2023-09-07T05:53:58;28.90;69.90
12477;DHT22;6303;51.504;6.300;2023-09-07T05:56:25;29.00;70.10
12477;DHT22;6303;51.504;6.300;2023-09-07T05:58:53;29.00;70.20
12477;DHT22;6303;51.504;6.300;2023-09-07T06:01:21;29.00;70.60
12477;DHT22;6303;51.504;6.300;2023-09-07T06:03:48;29.00;70.80
12477;DHT22;6303;51.504;6.300;2023-09-07T06:06:15;29.00;70.70
12477;DHT22;6303;51.504;6.300;2023-09-07T06:08:42;29.00;70.90
12477;DHT22;6303;51.504;6.300;2023-09-07T06:11:09;29.00;71.10
12477;DHT22;6303;51.504;6.300;2023-09-07T06:13:37;29.10;71.00
12477;DHT22;6303;51.504;6.300;2023-09-07T06:16:05;29.10;71.00
12477;DHT22;6303;51.504;6.300;2023-09-07T06:18:32;29.20;70.90
12477;DHT22;6303;51.504;6.300;2023-09-07T06:20:59;29.20;70.70
12477;DHT22;6303;51.504;6.300;2023-09-07T06:23:26;29.20;70.40
12477;DHT22;6303;51.504;6.300;2023-09-07T06:25:53;29.30;70.60
12477;DHT22;6303;51.504;6.300;2023-09-07T06:28:21;29.30;70.30
12477;DHT22;6303;51.504;6.300;2023-09-07T06:30:48;29.40;70.30
12477;DHT22;6303;51.504;6.300;2023-09-07T06:33:18;29.40;70.30
12477;DHT22;6303;51.504;6.300;2023-09-07T06:35:45;29.40;70.10
12477;DHT22;6303;51.504;6.300;2023-09-07T06:38:13;29.50;70.00
12477;DHT22;6303;51.504;6.300;2023-09-07T06:40:40;29.50;69.90
12477;DHT22;6303;51.504;6.300;2023-09-07T06:43:08;29.60;69.80
12477;DHT22;6303;51.504;6.300;2023-09-07T06:45:36;29.60;69.60
12477;DHT22;6303;51.504;6.300;2023-09-07T06:48:04;29.60;69.30
12477;DHT22;6303;51.504;6.300;2023-09-07T06:50:33;29.70;69.40
12477;DHT22;6303;51.504;6.300;2023-09-07T06:53:01;29.70;69.10
12477;DHT22;6303;51.504;6.300;2023-09-07T06:55:28;29.80;69.10
12477;DHT22;6303;51.504;6.300;2023-09-07T06:57:56;29.80;68.90
12477;DHT22;6303;51.504;6.300;2023-09-07T07:00:23;29.80;68.80
12477;DHT22;6303;51.504;6.300;2023-09-07T07:02:50;29.80;68.60
12477;DHT22;6303;51.504;6.300;2023-09-07T07:05:18;29.90;68.60
12477;DHT22;6303;51.504;6.300;2023-09-07T07:07:47;29.90;68.40
12477;DHT22;6303;51.504;6.300;2023-09-07T07:10:14;30.00;67.90
12477;DHT22;6303;51.504;6.300;2023-09-07T07:12:42;30.00;67.50
12477;DHT22;6303;51.504;6.300;2023-09-07T07:15:09;30.00;67.30
12477;DHT22;6303;51.504;6.300;2023-09-07T07:17:37;30.10;68.10
12477;DHT22;6303;51.504;6.300;2023-09-07T07:20:06;30.10;67.20
12477;DHT22;6303;51.504;6.300;2023-09-07T07:22:34;30.20;66.70
12477;DHT22;6303;51.504;6.300;2023-09-07T07:25:03;30.20;66.10
12477;DHT22;6303;51.504;6.300;2023-09-07T07:27:32;30.20;66.00
12477;DHT22;6303;51.504;6.300;2023-09-07T07:30:00;30.30;66.30
12477;DHT22;6303;51.504;6.300;2023-09-07T07:32:27;30.30;66.20
12477;DHT22;6303;51.504;6.300;2023-09-07T07:34:54;30.40;66.00
12477;DHT22;6303;51.504;6.300;2023-09-07T07:37:23;30.40;65.90
12477;DHT22;6303;51.504;6.300;2023-09-07T07:39:50;30.40;65.70
12477;DHT22;6303;51.504;6.300;2023-09-07T07:42:19;30.30;65.30
12477;DHT22;6303;51.504;6.300;2023-09-07T07:44:47;30.50;65.30
12477;DHT22;6303;51.504;6.300;2023-09-07T07:47:14;30.60;65.20
12477;DHT22;6303;51.504;6.300;2023-09-07T07:49:41;30.60;64.90
12477;DHT22;6303;51.504;6.300;2023-09-07T07:52:08;30.60;64.80
12477;DHT22;6303;51.504;6.300;2023-09-07T07:54:36;30.60;64.60
12477;DHT22;6303;51.504;6.300;2023-09-07T07:57:04;30.70;64.30
12477;DHT22;6303;51.504;6.300;2023-09-07T07:59:33;30.70;64.30
12477;DHT22;6303;51.504;6.300;2023-09-07T08:02:01;30.80;64.10
12477;DHT22;6303;51.504;6.300;2023-09-07T08:04:29;30.80;64.20
12477;DHT22;6303;51.504;6.300;2023-09-07T08:06:58;30.80;64.00
12477;DHT22;6303;51.504;6.300;2023-09-07T08:09:30;30.90;63.80
12477;DHT22;6303;51.504;6.300;2023-09-07T08:11:57;30.90;63.50
12477;DHT22;6303;51.504;6.300;2023-09-07T08:14:30;30.90;63.40
12477;DHT22;6303;51.504;6.300;2023-09-07T08:16:59;31.00;63.10
12477;DHT22;6303;51.504;6.300;2023-09-07T08:19:27;31.00;63.00
12477;DHT22;6303;51.504;6.300;2023-09-07T08:21:57;31.00;62.60
12477;DHT22;6303;51.504;6.300;2023-09-07T08:24:25;31.00;62.40
12477;DHT22;6303;51.504;6.300;2023-09-07T08:26:52;31.10;61.40
12477;DHT22;6303;51.504;6.300;2023-09-07T08:29:21;31.10;60.80
12477;DHT22;6303;51.504;6.300;2023-09-07T08:31:50;31.10;61.40
12477;DHT22;6303;51.504;6.300;2023-09-07T08:34:19;31.10;62.40
12477;DHT22;6303;51.504;6.300;2023-09-07T08:36:48;31.10;61.80
12477;DHT22;6303;51.504;6.300;2023-09-07T08:39:16;31.20;61.60
12477;DHT22;6303;51.504;6.300;2023-09-07T08:41:44;31.20;61.40
12477;DHT22;6303;51.504;6.300;2023-09-07T08:44:11;30.50;60.70
12477;DHT22;6303;51.504;6.300;2023-09-07T08:46:41;31.20;60.80
12477;DHT22;6303;51.504;6.300;2023-09-07T08:49:10;31.30;60.80
12477;DHT22;6303;51.504;6.300;2023-09-07T08:51:39;31.30;60.80
12477;DHT22;6303;51.504;6.300;2023-09-07T08:54:07;31.30;60.70
12477;DHT22;6303;51.504;6.300;2023-09-07T08:56:35;31.30;60.50
12477;DHT22;6303;51.504;6.300;2023-09-07T08:59:03;31.40;60.60
12477;DHT22;6303;51.504;6.300;2023-09-07T09:01:30;31.40;60.50
12477;DHT22;6303;51.504;6.300;2023-09-07T09:03:58;31.50;60.60
12477;DHT22;6303;51.504;6.300;2023-09-07T09:06:26;31.50;60.40
12477;DHT22;6303;51.504;6.300;2023-09-07T09:08:56;31.50;60.20
12477;DHT22;6303;51.504;6.300;2023-09-07T09:11:24;31.50;60.20
12477;DHT22;6303;51.504;6.300;2023-09-07T09:13:53;31.50;60.10
12477;DHT22;6303;51.504;6.300;2023-09-07T09:16:20;31.60;60.10
12477;DHT22;6303;51.504;6.300;2023-09-07T09:18:48;31.60;59.90
12477;DHT22;6303;51.504;6.300;2023-09-07T09:21:18;31.60;59.90
12477;DHT22;6303;51.504;6.300;2023-09-07T09:23:48;31.60;59.70
12477;DHT22;6303;51.504;6.300;2023-09-07T09:26:16;31.60;59.60
12477;DHT22;6303;51.504;6.300;2023-09-07T09:28:44;31.70;59.70
12477;DHT22;6303;51.504;6.300;2023-09-07T09:31:12;31.70;59.60
12477;DHT22;6303;51.504;6.300;2023-09-07T09:33:40;31.70;59.80
12477;DHT22;6303;51.504;6.300;2023-09-07T09:36:07;31.70;59.60
12477;DHT22;6303;51.504;6.300;2023-09-07T09:38:35;31.70;59.60
12477;DHT22;6303;51.504;6.300;2023-09-07T09:41:04;31.80;59.50
12477;DHT22;6303;51.504;6.300;2023-09-07T09:43:33;31.80;59.50
12477;DHT22;6303;51.504;6.300;2023-09-07T09:46:00;31.80;59.40
12477;DHT22;6303;51.504;6.300;2023-09-07T09:48:29;31.80;59.30
12477;DHT22;6303;51.504;6.300;2023-09-07T09:50:59;31.80;59.30
12477;DHT22;6303;51.504;6.300;2023-09-07T09:53:26;31.80;59.20
12477;DHT22;6303;51.504;6.300;2023-09-07T09:55:53;31.90;59.10
12477;DHT22;6303;51.504;6.300;2023-09-07T09:58:20;31.90;58.10
12477;DHT22;6303;51.504;6.300;2023-09-07T10:00:51;31.90;58.40
12477;DHT22;6303;51.504;6.300;2023-09-07T10:03:24;31.90;58.60
12477;DHT22;6303;51.504;6.300;2023-09-07T10:05:53;31.90;58.60
12477;DHT22;6303;51.504;6.300;2023-09-07T10:08:21;32.00;58.70
12477;DHT22;6303;51.504;6.300;2023-09-07T10:10:52;32.00;58.80
12477;DHT22;6303;51.504;6.300;2023-09-07T10:13:29;32.00;58.70
12477;DHT22;6303;51.504;6.300;2023-09-07T10:16:01;32.00;58.70
12477;DHT22;6303;51.504;6.300;2023-09-07T10:18:34;32.00;58.60
12477;DHT22;6303;51.504;6.300;2023-09-07T10:21:01;32.00;58.50
12477;DHT22;6303;51.504;6.300;2023-09-07T10:23:36;32.00;58.60
12477;DHT22;6303;51.504;6.300;2023-09-07T10:26:04;32.10;58.60
12477;DHT22;6303;51.504;6.300;2023-09-07T10:28:31;32.10;58.50
12477;DHT22;6303;51.504;6.300;2023-09-07T10:31:01;32.10;58.60
12477;DHT22;6303;51.504;6.300;2023-09-07T10:33:30;32.10;58.40
12477;DHT22;6303;51.504;6.300;2023-09-07T10:35:57;32.10;58.50
12477;DHT22;6303;51.504;6.300;2023-09-07T10:38:25;32.10;58.40
12477;DHT22;6303;51.504;6.300;2023-09-07T10:40:55;32.10;58.40
12477;DHT22;6303;51.504;6.300;2023-09-07T10:43:25;32.10;58.40
12477;DHT22;6303;51.504;6.300;2023-09-07T10:45:52;32.20;58.40
12477;DHT22;6303;51.504;6.300;2023-09-07T10:48:21;32.20;58.30
12477;DHT22;6303;51.504;6.300;2023-09-07T10:50:48;32.20;58.20
12477;DHT22;6303;51.504;6.300;2023-09-07T10:53:24;32.20;58.30
12477;DHT22;6303;51.504;6.300;2023-09-07T10:55:53;32.20;58.20
12477;DHT22;6303;51.504;6.300;2023-09-07T10:58:29;32.20;58.30
12477;DHT22;6303;51.504;6.300;2023-09-07T11:00:57;32.20;58.30
12477;DHT22;6303;51.504;6.300;2023-09-07T11:03:26;32.20;58.30
12477;DHT22;6303;51.504;6.300;2023-09-07T11:05:55;32.30;58.20
12477;DHT22;6303;51.504;6.300;2023-09-07T11:08:23;32.20;58.20
12477;DHT22;6303;51.504;6.300;2023-09-07T11:10:51;32.30;58.20
12477;DHT22;6303;51.504;6.300;2023-09-07T11:13:18;32.30;58.30
12477;DHT22;6303;51.504;6.300;2023-09-07T11:15:45;32.30;58.10
12477;DHT22;6303;51.504;6.300;2023-09-07T11:18:12;32.30;58.10
12477;DHT22;6303;51.504;6.300;2023-09-07T11:20:42;32.30;58.10
12477;DHT22;6303;51.504;6.300;2023-09-07T11:23:09;32.30;58.00
12477;DHT22;6303;51.504;6.300;2023-09-07T11:25:37;32.30;58.20
12477;DHT22;6303;51.504;6.300;2023-09-07T11:28:05;32.30;58.00
12477;DHT22;6303;51.504;6.300;2023-09-07T11:30:32;32.30;58.20
12477;DHT22;6303;51.504;6.300;2023-09-07T11:33:01;32.30;58.20
12477;DHT22;6303;51.504;6.300;2023-09-07T11:35:28;32.30;58.20
12477;DHT22;6303;51.504;6.300;2023-09-07T11:37:59;32.30;58.10
12477;DHT22;6303;51.504;6.300;2023-09-07T11:40:26;32.30;58.10
12477;DHT22;6303;51.504;6.300;2023-09-07T11:42:54;32.30;58.20
12477;DHT22;6303;51.504;6.300;2023-09-07T11:45:21;32.30;58.20
12477;DHT22;6303;51.504;6.300;2023-09-07T11:47:48;33.30;58.80
12477;DHT22;6303;51.504;6.300;2023-09-07T11:50:16;32.30;58.30
12477;DHT22;6303;51.504;6.300;2023-09-07T11:52:44;32.20;58.20
12477;DHT22;6303;51.504;6.300;2023-09-07T11:55:14;32.30;58.30
12477;DHT22;6303;51.504;6.300;2023-09-07T11:57:41;32.20;58.10
12477;DHT22;6303;51.504;6.300;2023-09-07T12:00:09;32.20;58.20
12477;DHT22;6303;51.504;6.300;2023-09-07T12:02:39;32.20;58.30
12477;DHT22;6303;51.504;6.300;2023-09-07T12:05:07;32.20;58.30
12477;DHT22;6303;51.504;6.300;2023-09-07T12:07:35;32.20;58.30
12477;DHT22;6303;51.504;6.300;2023-09-07T12:10:03;32.20;58.30
12477;DHT22;6303;51.504;6.300;2023-09-07T12:12:32;32.20;58.40
12477;DHT22;6303;51.504;6.300;2023-09-07T12:14:59;32.20;58.50
12477;DHT22;6303;51.504;6.300;2023-09-07T12:17:26;32.10;58.40
12477;DHT22;6303;51.504;6.300;2023-09-07T12:19:54;32.10;58.50
12477;DHT22;6303;51.504;6.300;2023-09-07T12:22:22;32.10;58.60
12477;DHT22;6303;51.504;6.300;2023-09-07T12:24:49;32.10;58.60
12477;DHT22;6303;51.504;6.300;2023-09-07T12:27:17;32.00;58.70
12477;DHT22;6303;51.504;6.300;2023-09-07T12:29:46;32.00;58.80
12477;DHT22;6303;51.504;6.300;2023-09-07T12:32:14;32.00;58.80
12477;DHT22;6303;51.504;6.300;2023-09-07T12:34:41;32.00;59.00
12477;DHT22;6303;51.504;6.300;2023-09-07T12:37:08;31.90;59.00
12477;DHT22;6303;51.504;6.300;2023-09-07T12:39:36;31.90;59.10
12477;DHT22;6303;51.504;6.300;2023-09-07T12:42:03;31.90;59.10
12477;DHT22;6303;51.504;6.300;2023-09-07T12:44:30;31.80;59.10
12477;DHT22;6303;51.504;6.300;2023-09-07T12:46:59;31.80;59.20
12477;DHT22;6303;51.504;6.300;2023-09-07T12:49:26;31.80;59.30
12477;DHT22;6303;51.504;6.300;2023-09-07T12:51:53;31.80;59.40
12477;DHT22;6303;51.504;6.300;2023-09-07T12:54:20;31.70;59.50
12477;DHT22;6303;51.504;6.300;2023-09-07T12:56:47;31.60;59.60
12477;DHT22;6303;51.504;6.300;2023-09-07T12:59:15;31.60;59.70
12477;DHT22;6303;51.504;6.300;2023-09-07T13:01:42;31.60;59.80
12477;DHT22;6303;51.504;6.300;2023-09-07T13:04:10;31.60;59.90
12477;DHT22;6303;51.504;6.300;2023-09-07T13:06:38;31.50;60.00
12477;DHT22;6303;51.504;6.300;2023-09-07T13:09:05;31.50;60.10
12477;DHT22;6303;51.504;6.300;2023-09-07T13:11:33;31.50;60.20
12477;DHT22;6303;51.504;6.300;2023-09-07T13:14:01;31.40;60.20
12477;DHT22;6303;51.504;6.300;2023-09-07T13:16:28;31.40;60.30
12477;DHT22;6303;51.504;6.300;2023-09-07T13:18:55;31.40;60.40
12477;DHT22;6303;51.504;6.300;2023-09-07T13:21:24;31.40;60.40
12477;DHT22;6303;51.504;6.300;2023-09-07T13:23:51;31.40;60.50
12477;DHT22;6303;51.504;6.300;2023-09-07T13:26:18;31.30;60.50
12477;DHT22;6303;51.504;6.300;2023-09-07T13:28:45;31.30;60.60
12477;DHT22;6303;51.504;6.300;2023-09-07T13:31:12;31.30;60.70
12477;DHT22;6303;51.504;6.300;2023-09-07T13:33:39;31.30;60.80
12477;DHT22;6303;51.504;6.300;2023-09-07T13:36:06;31.30;60.90
12477;DHT22;6303;51.504;6.300;2023-09-07T13:38:36;31.20;60.80
12477;DHT22;6303;51.504;6.300;2023-09-07T13:41:03;31.20;60.90
12477;DHT22;6303;51.504;6.300;2023-09-07T13:43:31;31.20;61.00
12477;DHT22;6303;51.504;6.300;2023-09-07T13:45:58;31.20;61.00
12477;DHT22;6303;51.504;6.300;2023-09-07T13:48:26;31.20;61.10
12477;DHT22;6303;51.504;6.300;2023-09-07T13:50:53;31.20;61.20
12477;DHT22;6303;51.504;6.300;2023-09-07T13:53:20;31.10;61.20
12477;DHT22;6303;51.504;6.300;2023-09-07T13:55:49;31.10;61.30
12477;DHT22;6303;51.504;6.300;2023-09-07T13:58:16;31.10;61.40
12477;DHT22;6303;51.504;6.300;2023-09-07T14:00:43;31.10;61.40
12477;DHT22;6303;51.504;6.300;2023-09-07T14:03:12;31.10;61.50
12477;DHT22;6303;51.504;6.300;2023-09-07T14:05:39;31.10;61.60
12477;DHT22;6303;51.504;6.300;2023-09-07T14:08:06;31.10;61.60
12477;DHT22;6303;51.504;6.300;2023-09-07T14:10:34;31.10;61.60
12477;DHT22;6303;51.504;6.300;2023-09-07T14:13:04;31.10;61.70
12477;DHT22;6303;51.504;6.300;2023-09-07T14:15:31;31.10;61.70
12477;DHT22;6303;51.504;6.300;2023-09-07T14:17:59;31.00;61.70
12477;DHT22;6303;51.504;6.300;2023-09-07T14:20:27;31.10;61.80
12477;DHT22;6303;51.504;6.300;2023-09-07T14:22:55;31.00;61.70
12477;DHT22;6303;51.504;6.300;2023-09-07T14:25:24;31.00;61.80
12477;DHT22;6303;51.504;6.300;2023-09-07T14:27:51;31.00;61.90
12477;DHT22;6303;51.504;6.300;2023-09-07T14:30:19;31.00;62.00
12477;DHT22;6303;51.504;6.300;2023-09-07T14:32:47;30.50;61.60
12477;DHT22;6303;51.504;6.300;2023-09-07T14:35:15;31.00;62.10
12477;DHT22;6303;51.504;6.300;2023-09-07T14:37:42;31.00;62.10
12477;DHT22;6303;51.504;6.300;2023-09-07T14:40:09;31.00;62.30
12477;DHT22;6303;51.504;6.300;2023-09-07T14:42:36;31.00;62.30
12477;DHT22;6303;51.504;6.300;2023-09-07T14:45:04;31.00;62.30
12477;DHT22;6303;51.504;6.300;2023-09-07T14:47:33;31.00;62.40
12477;DHT22;6303;51.504;6.300;2023-09-07T14:50:01;30.90;62.30
12477;DHT22;6303;51.504;6.300;2023-09-07T14:52:29;30.90;62.30
12477;DHT22;6303;51.504;6.300;2023-09-07T14:54:56;31.00;62.40
12477;DHT22;6303;51.504;6.300;2023-09-07T14:57:24;30.90;62.30
12477;DHT22;6303;51.504;6.300;2023-09-07T14:59:51;30.90;62.40
12477;DHT22;6303;51.504;6.300;2023-09-07T15:02:18;30.90;62.50
12477;DHT22;6303;51.504;6.300;2023-09-07T15:04:47;30.90;62.40
12477;DHT22;6303;51.504;6.300;2023-09-07T15:07:14;30.90;62.40
12477;DHT22;6303;51.504;6.300;2023-09-07T15:09:41;31.00;62.50
12477;DHT22;6303;51.504;6.300;2023-09-07T15:12:08;30.90;62.60
12477;DHT22;6303;51.504;6.300;2023-09-07T15:14:36;30.90;62.60
12477;DHT22;6303;51.504;6.300;2023-09-07T15:17:04;30.90;62.60
12477;DHT22;6303;51.504;6.300;2023-09-07T15:19:31;30.90;62.60
12477;DHT22;6303;51.504;6.300;2023-09-07T15:22:01;30.90;62.60
12477;DHT22;6303;51.504;6.300;2023-09-07T15:24:28;30.90;62.60
12477;DHT22;6303;51.504;6.300;2023-09-07T15:26:55;30.90;62.70
12477;DHT22;6303;51.504;6.300;2023-09-07T15:29:22;30.90;62.70
12477;DHT22;6303;51.504;6.300;2023-09-07T15:31:50;30.90;62.80
12477;DHT22;6303;51.504;6.300;2023-09-07T15:34:19;30.90;62.80
12477;DHT22;6303;51.504;6.300;2023-09-07T15:36:46;30.90;62.80
12477;DHT22;6303;51.504;6.300;2023-09-07T15:39:15;30.90;62.80
12477;DHT22;6303;51.504;6.300;2023-09-07T15:41:42;30.90;62.80
12477;DHT22;6303;51.504;6.300;2023-09-07T15:44:09;30.90;62.90
12477;DHT22;6303;51.504;6.300;2023-09-07T15:46:36;30.90;62.90
12477;DHT22;6303;51.504;6.300;2023-09-07T15:49:03;30.90;62.90
12477;DHT22;6303;51.504;6.300;2023-09-07T15:51:30;30.90;63.00